createdAt,value
2022-09-03T00:01:55.245Z,1.35
2022-09-03T00:04:37.588Z,1.15
2022-09-03T00:07:09.045Z,1.70
2022-09-03T00:09:46.321Z,1.60
2022-09-03T00:12:19.998Z,1.10
2022-09-03T00:15:06.478Z,1.20
2022-09-03T00:17:37.211Z,1.25
2022-09-03T00:20:17.589Z,1.30
2022-09-03T00:22:50.367Z,1.17
2022-09-03T00:25:21.417Z,1.30
2022-09-03T00:27:55.242Z,1.58
2022-09-03T00:30:24.488Z,1.42
2022-09-03T00:32:57.497Z,1.25
2022-09-03T00:35:28.710Z,1.40
2022-09-03T00:37:56.033Z,1.35
2022-09-03T00:40:50.675Z,1.55
2022-09-03T00:43:26.452Z,1.42
2022-09-03T00:46:11.778Z,1.50
2022-09-03T00:48:55.904Z,1.38
2022-09-03T00:52:05.605Z,1.45
2022-09-03T00:54:56.738Z,1.35
2022-09-03T00:58:00.984Z,1.30
2022-09-03T01:00:29.246Z,1.17
2022-09-03T01:03:34.211Z,1.40
2022-09-03T01:06:15.503Z,1.40
2022-09-03T01:09:03.662Z,1.38
2022-09-03T01:12:13.679Z,1.80
2022-09-03T01:14:50.434Z,1.40
2022-09-03T01:17:37.451Z,1.13
2022-09-03T01:20:15.851Z,1.50
2022-09-03T01:23:02.659Z,1.65
2022-09-03T01:25:48.693Z,1.30
2022-09-03T01:28:33.537Z,1.30
2022-09-03T01:31:27.148Z,1.27
2022-09-03T01:34:06.072Z,1.10
2022-09-03T01:36:44.806Z,1.40
2022-09-03T01:39:24.481Z,1.27
2022-09-03T01:42:15.866Z,1.08
2022-09-03T01:45:09.614Z,1.48
2022-09-03T01:47:51.636Z,1.40
2022-09-03T01:50:44.096Z,1.35
2022-09-03T01:53:35.845Z,1.30
2022-09-03T01:56:15.556Z,1.50
2022-09-03T01:59:01.144Z,1.00
2022-09-03T02:01:36.936Z,1.27
2022-09-03T02:04:14.812Z,1.55
2022-09-03T02:06:41.716Z,1.55
2022-09-03T02:09:08.379Z,1.40
2022-09-03T02:11:35.042Z,1.35
2022-09-03T02:14:01.795Z,1.20
2022-09-03T02:16:31.969Z,1.20
2022-09-03T02:19:02.255Z,1.20
2022-09-03T02:21:35.038Z,0.90
2022-09-03T02:24:03.584Z,1.50
2022-09-03T02:26:30.351Z,1.13
2022-09-03T02:28:57.891Z,1.17
2022-09-03T02:31:24.918Z,1.17
2022-09-03T02:33:51.918Z,1.40
2022-09-03T02:36:21.854Z,1.23
2022-09-03T02:38:52.342Z,1.10
2022-09-03T02:41:19.295Z,1.23
2022-09-03T02:44:02.998Z,1.20
2022-09-03T02:46:36.308Z,1.00
2022-09-03T02:49:03.183Z,1.10
2022-09-03T02:51:38.744Z,1.60
2022-09-03T02:54:06.395Z,1.00
2022-09-03T02:56:33.112Z,1.20
2022-09-03T02:59:00.363Z,1.40
2022-09-03T03:01:27.454Z,1.15
2022-09-03T03:03:54.780Z,1.17
2022-09-03T03:06:22.221Z,1.23
2022-09-03T03:08:49.966Z,1.17
2022-09-03T03:11:18.462Z,1.50
2022-09-03T03:13:46.248Z,1.35
2022-09-03T03:16:13.964Z,1.52
2022-09-03T03:18:41.232Z,1.30
2022-09-03T03:21:10.009Z,1.50
2022-09-03T03:23:38.130Z,1.35
2022-09-03T03:26:07.316Z,1.38
2022-09-03T03:28:34.620Z,1.40
2022-09-03T03:31:07.869Z,1.20
2022-09-03T03:33:34.980Z,1.50
2022-09-03T03:36:16.075Z,1.42
2022-09-03T03:38:44.150Z,1.17
2022-09-03T03:41:13.772Z,1.60
2022-09-03T03:43:40.746Z,1.23
2022-09-03T03:46:07.663Z,1.30
2022-09-03T03:48:34.450Z,1.40
2022-09-03T03:51:04.350Z,1.33
2022-09-03T03:53:31.692Z,1.40
2022-09-03T03:56:00.459Z,1.38
2022-09-03T03:58:28.863Z,1.40
2022-09-03T04:00:55.759Z,1.23
2022-09-03T04:03:22.483Z,1.60
2022-09-03T04:05:59.869Z,1.20
2022-09-03T04:08:29.839Z,1.63
2022-09-03T04:11:01.234Z,1.40
2022-09-03T04:13:38.738Z,1.30
2022-09-03T04:16:10.660Z,1.58
2022-09-03T04:18:38.320Z,1.40
2022-09-03T04:21:18.842Z,1.65
2022-09-03T04:23:46.649Z,1.50
2022-09-03T04:26:16.071Z,1.30
2022-09-03T04:28:43.080Z,1.70
2022-09-03T04:31:11.290Z,1.35
2022-09-03T04:33:38.974Z,1.90
2022-09-03T04:36:08.631Z,1.30
2022-09-03T04:38:36.962Z,1.75
2022-09-03T04:41:05.057Z,1.42
2022-09-03T04:43:35.188Z,1.55
2022-09-03T04:46:05.279Z,1.42
2022-09-03T04:48:33.111Z,1.73
2022-09-03T04:51:15.628Z,2.03
2022-09-03T04:53:45.612Z,1.40
2022-09-03T04:56:17.290Z,1.58
2022-09-03T04:58:44.829Z,1.25
2022-09-03T05:01:13.391Z,1.67
2022-09-03T05:03:40.221Z,1.38
2022-09-03T05:06:08.506Z,1.60
2022-09-03T05:08:36.935Z,1.90
2022-09-03T05:11:05.188Z,1.70
2022-09-03T05:13:33.828Z,1.70
2022-09-03T05:16:05.975Z,1.73
2022-09-03T05:18:33.172Z,1.70
2022-09-03T05:21:06.421Z,1.90
2022-09-03T05:23:37.741Z,1.63
2022-09-03T05:26:10.878Z,1.70
2022-09-03T05:28:39.226Z,1.50
2022-09-03T05:31:13.192Z,1.63
2022-09-03T05:33:44.287Z,1.55
2022-09-03T05:36:13.176Z,1.73
2022-09-03T05:38:40.045Z,1.60
2022-09-03T05:41:09.204Z,1.70
2022-09-03T05:43:36.546Z,1.70
2022-09-03T05:46:06.056Z,1.55
2022-09-03T05:48:35.742Z,1.60
2022-09-03T05:51:16.656Z,1.75
2022-09-03T05:53:48.074Z,1.52
2022-09-03T05:56:20.174Z,1.75
2022-09-03T05:58:49.267Z,1.77
2022-09-03T06:01:24.157Z,1.73
2022-09-03T06:03:55.629Z,1.75
2022-09-03T06:06:25.772Z,1.90
2022-09-03T06:08:53.677Z,1.75
2022-09-03T06:11:21.689Z,1.65
2022-09-03T06:13:48.494Z,2.08
2022-09-03T06:16:15.865Z,1.45
2022-09-03T06:18:42.679Z,1.73
2022-09-03T06:21:09.407Z,1.70
2022-09-03T06:23:36.478Z,1.60
2022-09-03T06:26:08.742Z,1.80
2022-09-03T06:28:37.993Z,1.73
2022-09-03T06:31:06.924Z,1.52
2022-09-03T06:33:35.467Z,2.05
2022-09-03T06:36:06.869Z,1.60
2022-09-03T06:38:37.344Z,1.80
2022-09-03T06:41:06.607Z,1.80
2022-09-03T06:43:38.890Z,1.55
2022-09-03T06:46:08.178Z,1.75
2022-09-03T06:48:35.748Z,1.95
2022-09-03T06:51:10.107Z,1.92
2022-09-03T06:53:41.240Z,2.25
2022-09-03T06:56:10.223Z,1.90
2022-09-03T06:58:38.875Z,1.90
2022-09-03T07:01:07.712Z,1.90
2022-09-03T07:03:38.263Z,1.75
2022-09-03T07:06:13.407Z,2.03
2022-09-03T07:08:40.521Z,1.85
2022-09-03T07:11:09.478Z,1.70
2022-09-03T07:13:41.850Z,2.00
2022-09-03T07:18:37.014Z,1.65
2022-09-03T07:21:09.382Z,2.40
2022-09-03T07:23:37.306Z,1.95
2022-09-03T07:26:06.670Z,1.75
2022-09-03T07:28:36.094Z,1.77
2022-09-03T07:31:15.207Z,1.77
2022-09-03T07:33:43.229Z,2.00
2022-09-03T07:36:15.390Z,1.95
2022-09-03T07:38:44.920Z,1.55
2022-09-03T07:41:23.913Z,2.17
2022-09-03T07:43:57.362Z,1.83
2022-09-03T07:46:26.705Z,1.63
2022-09-03T07:48:55.235Z,2.05
2022-09-03T07:51:27.926Z,2.50
2022-09-03T07:53:59.884Z,2.40
2022-09-03T07:56:27.289Z,2.58
2022-09-03T07:58:56.910Z,2.10
2022-09-03T08:01:26.155Z,2.33
2022-09-03T08:03:53.697Z,2.10
2022-09-03T08:06:22.964Z,1.88
2022-09-03T08:08:49.872Z,1.83
2022-09-03T08:11:19.480Z,2.45
2022-09-03T08:13:54.955Z,2.10
2022-09-03T08:16:21.726Z,2.17
2022-09-03T08:18:51.218Z,2.00
2022-09-03T08:21:20.188Z,2.08
2022-09-03T08:23:48.690Z,2.60
2022-09-03T08:26:17.482Z,2.30
2022-09-03T08:28:44.990Z,2.30
2022-09-03T08:31:17.678Z,2.13
2022-09-03T08:33:46.435Z,2.20
2022-09-03T08:36:17.819Z,2.17
2022-09-03T08:38:46.512Z,2.30
2022-09-03T08:41:24.393Z,2.28
2022-09-03T08:44:07.219Z,2.40
2022-09-03T08:46:42.657Z,2.13
2022-09-03T08:49:11.946Z,2.25
2022-09-03T08:51:40.587Z,2.70
2022-09-03T08:54:09.649Z,2.45
2022-09-03T08:56:39.543Z,2.40
2022-09-03T08:59:06.669Z,2.35
2022-09-03T09:01:33.550Z,2.38
2022-09-03T09:04:22.626Z,2.88
2022-09-03T09:07:05.056Z,2.30
2022-09-03T09:12:41.277Z,2.40
2022-09-03T09:15:34.900Z,2.58
2022-09-03T09:18:23.963Z,2.20
2022-09-03T09:21:08.213Z,3.05
2022-09-03T09:23:38.435Z,2.78
2022-09-03T09:26:09.244Z,2.53
2022-09-03T09:28:40.799Z,2.70
2022-09-03T09:31:12.594Z,2.55
2022-09-03T09:33:39.377Z,2.47
2022-09-03T09:36:08.860Z,2.65
2022-09-03T09:38:37.583Z,2.80
2022-09-03T09:41:19.482Z,2.70
2022-09-03T09:43:48.058Z,3.05
2022-09-03T09:46:22.866Z,2.70
2022-09-03T09:48:58.977Z,2.55
2022-09-03T09:51:31.215Z,2.90
2022-09-03T09:56:59.713Z,3.28
2022-09-03T09:59:26.483Z,3.13
2022-09-03T10:02:24.107Z,2.85
2022-09-03T10:04:51.087Z,2.92
2022-09-03T10:07:28.139Z,2.70
2022-09-03T10:10:00.746Z,2.72
2022-09-03T10:12:35.900Z,2.70
2022-09-03T10:15:10.584Z,2.50
2022-09-03T10:17:40.285Z,2.38
2022-09-03T10:20:31.365Z,2.95
2022-09-03T10:23:19.269Z,3.10
2022-09-03T10:26:10.477Z,2.90
2022-09-03T10:28:42.723Z,2.75
2022-09-03T10:33:59.186Z,2.22
2022-09-03T10:36:37.180Z,2.97
2022-09-03T10:39:25.352Z,2.63
2022-09-03T10:42:21.963Z,3.00
2022-09-03T10:45:20.029Z,2.80
2022-09-03T10:48:07.906Z,2.90
2022-09-03T10:50:53.591Z,3.03
2022-09-03T10:53:27.261Z,2.50
2022-09-03T10:56:02.123Z,2.92
2022-09-03T10:58:53.971Z,2.45
2022-09-03T11:01:39.847Z,2.38
2022-09-03T11:04:44.414Z,2.67
2022-09-03T11:07:15.417Z,2.67
2022-09-03T11:09:46.387Z,3.20
2022-09-03T11:12:23.252Z,2.80
2022-09-03T11:15:15.689Z,2.30
2022-09-03T11:17:47.848Z,2.72
2022-09-03T11:22:43.304Z,2.30
2022-09-03T11:25:11.571Z,2.25
2022-09-03T11:27:41.336Z,2.53
2022-09-03T11:30:10.530Z,3.35
2022-09-03T11:32:40.871Z,2.80
2022-09-03T11:35:28.712Z,2.85
2022-09-03T11:38:06.681Z,2.75
2022-09-03T11:40:37.003Z,2.75
2022-09-03T11:43:24.591Z,3.15
2022-09-03T11:46:06.551Z,2.40
2022-09-03T11:48:44.045Z,2.78
2022-09-03T11:51:32.429Z,2.78
2022-09-03T11:54:14.252Z,2.78
2022-09-03T11:56:42.616Z,2.72
2022-09-03T11:59:12.573Z,2.72
2022-09-03T12:01:44.869Z,3.03
2022-09-03T12:04:15.318Z,2.60
2022-09-03T12:07:20.816Z,2.83
2022-09-03T12:09:51.685Z,2.75
2022-09-03T12:12:58.917Z,2.80
2022-09-03T12:15:31.547Z,2.25
2022-09-03T12:18:19.818Z,2.78
2022-09-03T12:20:47.979Z,2.72
2022-09-03T12:23:28.286Z,2.42
2022-09-03T12:25:55.751Z,3.40
2022-09-03T12:28:25.000Z,2.67
2022-09-03T12:30:53.937Z,2.88
2022-09-03T12:33:22.002Z,2.75
2022-09-03T12:35:59.865Z,2.90
2022-09-03T12:38:29.524Z,2.97
2022-09-03T12:43:51.806Z,3.03
2022-09-03T12:46:21.148Z,3.40
2022-09-03T12:51:50.070Z,2.40
2022-09-03T12:54:20.119Z,1.80
2022-09-03T12:56:56.796Z,1.75
2022-09-03T12:59:24.483Z,1.80
2022-09-03T13:01:54.545Z,1.52
2022-09-03T13:04:25.576Z,1.65
2022-09-03T13:07:07.442Z,1.40
2022-09-03T13:09:36.754Z,1.63
2022-09-03T13:12:07.584Z,1.55
2022-09-03T13:14:45.209Z,1.50
2022-09-03T13:17:16.588Z,1.58
2022-09-03T13:19:58.386Z,1.90
2022-09-03T13:22:54.603Z,1.90
2022-09-03T13:25:29.981Z,2.47
2022-09-03T13:28:22.622Z,2.35
2022-09-03T13:30:56.905Z,2.50
2022-09-03T13:33:33.590Z,2.30
2022-09-03T13:36:20.188Z,2.42
2022-09-03T13:38:54.966Z,2.40
2022-09-03T13:41:38.668Z,2.75
2022-09-03T13:44:19.028Z,2.53
2022-09-03T13:46:54.782Z,2.10
2022-09-03T13:49:40.408Z,2.60
2022-09-03T13:52:13.966Z,1.98
2022-09-03T13:54:49.979Z,1.88
2022-09-03T13:57:16.744Z,1.83
2022-09-03T13:59:53.036Z,1.60
2022-09-03T14:02:38.298Z,1.40
2022-09-03T14:05:28.045Z,1.52
2022-09-03T14:08:07.649Z,1.30
2022-09-03T14:11:03.620Z,1.38
2022-09-03T14:13:55.259Z,1.48
2022-09-03T14:16:38.083Z,1.77
2022-09-03T14:19:13.337Z,1.55
2022-09-03T14:21:52.835Z,1.30
2022-09-03T14:24:27.652Z,1.63
2022-09-03T14:26:59.435Z,1.40
2022-09-03T14:29:31.238Z,1.50
2022-09-03T14:32:23.697Z,0.95
2022-09-03T14:34:56.169Z,1.30
2022-09-03T14:37:54.580Z,1.35
2022-09-03T14:40:42.407Z,1.15
2022-09-03T14:43:37.164Z,1.55
2022-09-03T14:46:15.638Z,1.55
2022-09-03T14:49:06.717Z,1.50
2022-09-03T14:51:39.777Z,1.55
2022-09-03T14:54:18.709Z,1.40
2022-09-03T14:57:13.871Z,1.50
2022-09-03T15:00:20.011Z,1.90
2022-09-03T15:02:50.689Z,1.85
2022-09-03T15:05:50.022Z,1.27
2022-09-03T15:08:43.009Z,2.10
2022-09-03T15:11:27.395Z,1.20
2022-09-03T15:14:06.273Z,1.80
2022-09-03T15:16:51.668Z,1.58
2022-09-03T15:19:39.914Z,1.73
2022-09-03T15:22:16.983Z,1.88
2022-09-03T15:24:55.593Z,1.77
2022-09-03T15:27:50.149Z,1.70
2022-09-03T15:30:20.134Z,2.17
2022-09-03T15:32:55.745Z,1.70
2022-09-03T15:35:52.332Z,1.42
2022-09-03T15:38:52.820Z,1.92
2022-09-03T15:41:36.247Z,1.40
2022-09-03T15:44:19.422Z,1.02
2022-09-03T15:46:56.828Z,1.33
2022-09-03T15:49:26.907Z,1.90
2022-09-03T15:52:09.843Z,1.73
2022-09-03T15:54:43.522Z,1.80
2022-09-03T15:57:14.023Z,1.50
2022-09-03T15:59:49.755Z,1.65
2022-09-03T16:02:21.990Z,1.63
2022-09-03T16:05:16.429Z,1.80
2022-09-03T16:08:06.089Z,1.15
2022-09-03T16:11:06.888Z,1.30
2022-09-03T16:13:42.242Z,1.42
2022-09-03T16:16:11.902Z,1.75
2022-09-03T16:19:02.324Z,1.40
2022-09-03T16:21:55.287Z,1.67
2022-09-03T16:24:45.312Z,1.60
2022-09-03T16:27:28.327Z,1.52
2022-09-03T16:30:03.541Z,1.50
2022-09-03T16:32:48.259Z,1.63
2022-09-03T16:35:43.070Z,1.60
2022-09-03T16:38:31.905Z,1.67
2022-09-03T16:41:22.155Z,1.30
2022-09-03T16:44:04.232Z,1.40
2022-09-03T16:47:08.143Z,1.40
2022-09-03T16:49:50.104Z,1.55
2022-09-03T16:52:41.796Z,1.80
2022-09-03T16:55:44.208Z,1.63
2022-09-03T16:58:22.706Z,1.65
2022-09-03T17:01:07.051Z,1.13
2022-09-03T17:03:38.946Z,1.30
2022-09-03T17:06:30.850Z,1.50
2022-09-03T17:09:23.992Z,1.08
2022-09-03T17:12:26.277Z,1.13
2022-09-03T17:15:02.805Z,1.30
2022-09-03T17:17:41.720Z,1.42
2022-09-03T17:20:37.503Z,1.42
2022-09-03T17:23:06.816Z,1.60
2022-09-03T17:25:40.636Z,1.60
2022-09-03T17:28:39.445Z,1.50
2022-09-03T17:31:06.328Z,1.60
2022-09-03T17:33:32.956Z,2.03
2022-09-03T17:36:16.160Z,1.80
2022-09-03T17:39:19.253Z,1.92
2022-09-03T17:44:24.038Z,1.38
2022-09-03T17:47:06.415Z,1.98
2022-09-03T17:49:42.902Z,1.95
2022-09-03T17:52:20.504Z,1.48
2022-09-03T17:54:54.694Z,1.55
2022-09-03T17:57:31.124Z,1.65
2022-09-03T18:00:08.495Z,1.75
2022-09-03T18:02:52.294Z,1.50
2022-09-03T18:05:26.751Z,1.80
2022-09-03T18:08:11.701Z,2.03
2022-09-03T18:10:50.074Z,1.70
2022-09-03T18:13:24.015Z,1.75
2022-09-03T18:16:05.680Z,1.60
2022-09-03T18:18:34.628Z,1.63
2022-09-03T18:21:26.408Z,1.70
2022-09-03T18:24:19.072Z,1.80
2022-09-03T18:27:20.228Z,1.55
2022-09-03T18:30:32.992Z,1.63
2022-09-03T18:33:18.544Z,1.55
2022-09-03T18:36:05.491Z,1.80
2022-09-03T18:38:53.676Z,1.50
2022-09-03T18:41:57.969Z,1.42
2022-09-03T18:44:57.751Z,1.65
2022-09-03T18:48:08.433Z,1.60
2022-09-03T18:51:05.555Z,1.75
2022-09-03T18:54:09.783Z,1.80
2022-09-03T18:57:07.427Z,1.95
2022-09-03T19:00:37.398Z,1.92
2022-09-03T19:03:48.207Z,2.08
2022-09-03T19:06:54.503Z,2.35
2022-09-03T19:10:06.099Z,1.95
2022-09-03T19:13:06.637Z,2.00
2022-09-03T19:16:01.125Z,1.88
2022-09-03T19:19:02.361Z,2.20
2022-09-03T19:21:59.979Z,2.00
2022-09-03T19:24:48.520Z,2.00
2022-09-03T19:28:00.262Z,2.08
2022-09-03T19:30:55.177Z,2.00
2022-09-03T19:33:52.277Z,2.10
2022-09-03T19:36:56.488Z,2.60
2022-09-03T19:40:07.413Z,2.38
2022-09-03T19:43:40.984Z,2.25
2022-09-03T19:46:54.041Z,2.67
2022-09-03T19:50:02.265Z,2.40
2022-09-03T19:52:53.840Z,2.80
2022-09-03T19:55:45.252Z,2.05
2022-09-03T19:58:43.253Z,2.22
2022-09-03T20:01:30.505Z,2.33
2022-09-03T20:04:18.692Z,2.00
2022-09-03T20:07:04.532Z,2.20
2022-09-03T20:09:54.746Z,2.33
2022-09-03T20:12:22.630Z,2.22
2022-09-03T20:14:49.362Z,2.05
2022-09-03T20:17:56.011Z,2.03
2022-09-03T20:20:55.138Z,2.25
2022-09-03T20:23:41.244Z,2.03
2022-09-03T20:26:49.609Z,2.10
2022-09-03T20:29:41.616Z,2.47
2022-09-03T20:32:12.266Z,2.90
2022-09-03T20:34:56.660Z,2.75
2022-09-03T20:37:42.279Z,2.72
2022-09-03T20:40:28.715Z,2.10
2022-09-03T20:43:06.254Z,2.03
2022-09-03T20:45:44.498Z,2.00
2022-09-03T20:48:22.057Z,2.60
2022-09-03T20:51:01.985Z,2.25
2022-09-03T20:53:43.999Z,2.28
2022-09-03T20:56:22.841Z,2.50
2022-09-03T20:59:11.013Z,2.17
2022-09-03T21:02:02.056Z,2.50
2022-09-03T21:05:00.084Z,2.60
2022-09-03T21:07:53.379Z,2.70
2022-09-03T21:10:34.953Z,2.40
2022-09-03T21:13:38.531Z,2.28
2022-09-03T21:16:30.549Z,3.10
2022-09-03T21:19:18.120Z,2.58
2022-09-03T21:21:48.056Z,3.03
2022-09-03T21:24:23.437Z,2.50
2022-09-03T21:27:03.719Z,2.60
2022-09-03T21:29:58.492Z,2.60
2022-09-03T21:32:30.781Z,2.80
2022-09-03T21:35:29.079Z,2.65
2022-09-03T21:37:59.912Z,2.40
2022-09-03T21:40:32.298Z,2.67
2022-09-03T21:43:34.835Z,2.72
2022-09-03T21:46:17.631Z,3.08
2022-09-03T21:48:59.722Z,2.95
2022-09-03T21:51:42.832Z,2.83
2022-09-03T21:54:18.416Z,2.75
2022-09-03T21:56:47.835Z,2.55
2022-09-03T21:59:17.219Z,2.40
2022-09-03T22:01:55.819Z,2.40
2022-09-03T22:04:22.835Z,2.65
2022-09-03T22:07:05.774Z,2.72
2022-09-03T22:09:42.127Z,2.55
2022-09-03T22:12:18.272Z,2.85
2022-09-03T22:14:51.381Z,2.35
2022-09-03T22:17:36.170Z,2.38
2022-09-03T22:20:20.566Z,2.30
2022-09-03T22:23:02.004Z,2.20
2022-09-03T22:26:03.882Z,2.20
2022-09-03T22:28:56.464Z,2.28
2022-09-03T22:32:06.151Z,2.30
2022-09-03T22:34:44.666Z,2.97
2022-09-03T22:37:47.925Z,2.42
2022-09-03T22:40:50.735Z,2.55
2022-09-03T22:43:46.892Z,2.40
2022-09-03T22:46:21.896Z,2.58
2022-09-03T22:49:28.177Z,2.60
2022-09-03T22:52:21.598Z,2.63
2022-09-03T22:55:20.535Z,2.47
2022-09-03T22:58:19.190Z,2.70
2022-09-03T23:01:24.120Z,2.78
2022-09-03T23:03:55.880Z,2.58
2022-09-03T23:06:32.950Z,3.13
2022-09-03T23:09:21.862Z,3.08
2022-09-03T23:12:46.562Z,2.58
2022-09-03T23:15:35.002Z,2.80
2022-09-03T23:18:26.958Z,2.78
2022-09-03T23:21:18.570Z,2.92
2022-09-03T23:24:04.887Z,2.85
2022-09-03T23:26:49.750Z,3.20
2022-09-03T23:29:38.649Z,2.50
2022-09-03T23:32:12.842Z,3.10
2022-09-03T23:34:59.932Z,2.88
2022-09-03T23:38:02.616Z,3.22
2022-09-03T23:40:42.683Z,3.72
2022-09-03T23:43:48.947Z,3.03
2022-09-03T23:46:54.089Z,3.50
2022-09-03T23:49:53.800Z,3.15
2022-09-03T23:52:58.284Z,3.60
2022-09-03T23:55:56.511Z,3.72
2022-09-03T23:59:08.405Z,3.55
